Latest Coastal Weather Observations for Smithton

IDT60701

Issued at 7:12 am EDT Friday 20 October 2017 (issued every 10 minutes, with the page automatically refreshed every 10 minutes)

About coastal observations | Map of coastal stations | Coastal observations for TAS | Marine services | Other Formats
Station Details ID: 091292 Name: SMITHTON AERODROME Lat: -40.83 Lon: 145.08 Height: 7.5 m
Data from the previous 72 hours. | See also: Recent months at Smithton
Date/Time
EDT
Temp
°C
Wind Pressure Rain since
9am
mm
Weather Cloud Vis
km
Sea
Height
m
Swell
Dir  Spd
kts
Gust
kts
hPa Trend Height
m
Period
s
Dir
20/07:00am 10.1 WSW 15 20 1022.1 - 4.6 - - - - - - -
20/06:30am 9.6 WSW 16 23 1021.5 - 4.6 - - - - - - -
20/06:00am 9.4 WSW 13 17 1021.1 - 4.6 - - - - - - -
20/05:30am 9.2 WSW 12 17 1020.6 - 4.6 - - - - - - -
20/05:00am 9.9 WSW 13 17 1020.4 - 4.6 - - - - - - -
20/04:33am 10.1 WSW 15 25 1020.2 - 4.6 - - - - - - -
20/04:30am 10.1 WSW 16 25 1020.2 - 4.6 - - - - - - -
20/04:00am 10.0 WSW 14 19 1019.8 - 4.6 - - - - - - -
20/03:30am 10.1 W 14 18 1019.7 - 4.6 - - - - - - -
20/03:00am 10.0 W 14 19 1019.8 - 4.6 - - - - - - -
20/02:30am 10.2 WSW 14 21 1019.7 - 4.6 - - - - - - -
20/02:00am 10.3 WSW 14 18 1019.7 - 4.6 - - - - - - -
20/01:30am 10.5 W 13 16 1019.6 - 4.6 - - - - - - -
20/01:00am 10.8 WSW 13 18 1019.4 - 4.6 - - - - - - -
20/12:30am 11.5 W 16 24 1019.0 - 4.6 - - - - - - -
20/12:00am 11.5 W 11 16 1018.7 - 4.6 - - - - - - -
 
Date/Time
EDT
Temp
°C
Wind Pressure Rain since
9am
mm
Weather Cloud Vis
km
Sea
Height
m
Swell
Dir  Spd
kts
Gust
kts
hPa Trend Height
m
Period
s
Dir
19/11:30pm 11.3 W 14 18 1018.9 - 4.6 - - - - - - -
19/11:00pm 10.8 W 10 14 1018.9 - 4.6 - - - - - - -
19/10:30pm 10.2 WNW 7 9 1019.2 - 4.6 - - - - - - -
19/10:00pm 10.6 W 8 9 1019.0 - 4.6 - - - - - - -
19/09:30pm 10.5 W 8 10 1018.6 - 4.6 - - - - - - -
19/09:00pm 10.9 W 8 10 1018.4 - 4.6 - - - - - - -
19/08:30pm 11.2 W 10 12 1017.9 - 4.6 - - - - - - -
19/08:00pm 11.7 W 12 17 1017.5 - 4.6 - - - - - - -
19/07:30pm 12.4 WSW 15 22 1017.2 - 4.6 - - - - - - -
19/07:00pm 12.9 WSW 15 20 1016.5 - 4.6 - - - - - - -
19/06:30pm 13.6 WSW 18 24 1016.1 - 4.6 - - - - - - -
19/06:05pm 14.1 WSW 20 30 1015.5 - 4.6 - - - - - - -
19/06:00pm 14.6 WSW 19 25 1015.5 - 4.6 - - - - - - -
19/05:30pm 15.0 WSW 18 26 1015.2 - 4.6 - - - - - - -
19/05:00pm 14.8 WSW 17 23 1015.0 - 4.6 - - - - - - -
19/04:30pm 14.9 WSW 17 21 1014.5 - 4.6 - - - - - - -
19/04:00pm 15.5 WSW 17 23 1013.9 - 4.6 - - - - - - -
19/03:30pm 15.0 SW 16 21 1013.6 - 4.6 - - - - - - -
19/03:00pm 15.2 WSW 17 25 1013.4 - 4.6 - - - - - - -
19/02:30pm 16.1 WNW 16 21 1012.9 - 4.6 - - - - - - -
19/02:00pm 16.4 WNW 14 19 1012.8 - 4.6 - - - - - - -
19/01:30pm 16.5 NW 15 19 1012.8 - 4.2 - - - - - - -
19/01:00pm 16.4 NNW 14 19 1012.9 - 4.2 - - - - - - -
19/12:30pm 16.1 N 10 14 1012.9 - 4.0 - - - - - - -
19/12:00pm 15.5 N 8 12 1013.3 - 3.2 - - - - - - -
19/11:30am 15.0 NNE 6 7 1013.2 - 2.6 - - - - - - -
19/11:00am 15.1 NE 5 7 1013.1 - 2.0 - - - - - - -
19/10:30am 15.4 NNE 8 10 1013.2 - 1.4 - - - - - - -
19/10:00am 15.4 NE 7 8 1012.8 - 1.4 - - - - - - -
19/09:30am 15.4 NE 6 8 1013.4 - 0.6 - - - - - - -
19/09:00am 15.2 NE 8 10 1013.4 - 7.0 - - - - - - -
19/08:30am 15.7 E 3 5 1013.3 - 6.8 - - - - - - -
19/08:00am 15.2 ENE 7 9 1013.1 - 6.0 - - - - - - -
19/07:30am 15.6 NNE 1 4 1013.1 - 5.2 - - - - - - -
19/07:00am 15.8 NNE 4 5 1012.9 - 3.6 - - - - - - -
19/06:30am 16.4 N 4 5 1013.0 - 0.8 - - - - - - -
19/06:00am 17.5 NNE 7 8 1012.4 - 0.0 - - - - - - -
19/05:30am 17.9 NE 7 10 1012.2 - 0.0 - - - - - - -
19/05:00am 17.7 NE 6 9 1012.3 - 0.0 - - - - - - -
19/04:30am 18.3 N 6 9 1013.1 - 0.0 - - - - - - -
19/04:00am 19.5 ENE 8 11 1012.2 - 0.0 - - - - - - -
19/03:30am 19.5 ENE 11 16 1012.3 - 0.0 - - - - - - -
19/03:00am 19.4 E 9 20 1013.0 - 0.0 - - - - - - -
19/02:30am 20.5 ENE 8 16 1013.5 - 0.0 - - - - - - -
19/02:00am 20.2 NE 12 16 1013.6 - 0.0 - - - - - - -
19/01:30am 19.6 E 11 19 1014.0 - 0.0 - - - - - - -
19/01:00am 18.4 E 11 15 1014.6 - 0.0 - - - - - - -
19/12:30am 17.9 ENE 11 15 1015.0 - 0.0 - - - - - - -
19/12:00am 18.3 ENE 12 17 1015.4 - 0.0 - - - - - - -
 
Date/Time
EDT
Temp
°C
Wind Pressure Rain since
9am
mm
Weather Cloud Vis
km
Sea
Height
m
Swell
Dir  Spd
kts
Gust
kts
hPa Trend Height
m
Period
s
Dir
18/11:30pm 18.7 ENE 12 17 1015.7 - 0.0 - - - - - - -
18/11:00pm 19.0 ENE 15 21 1015.7 - 0.0 - - - - - - -
18/10:30pm 18.8 ENE 14 19 1016.5 - 0.0 - - - - - - -
18/10:00pm 18.6 ENE 13 18 1016.8 - 0.0 - - - - - - -
18/09:30pm 19.0 ENE 13 18 1017.1 - 0.0 - - - - - - -
18/09:00pm 18.3 E 11 14 1017.2 - 0.0 - - - - - - -
18/08:30pm 18.1 E 9 12 1017.2 - 0.0 - - - - - - -
18/08:00pm 17.5 ENE 8 11 1017.2 - 0.0 - - - - - - -
18/07:30pm 17.2 ENE 10 13 1017.2 - 0.0 - - - - - - -
18/07:00pm 17.8 ENE 11 15 1017.1 - 0.0 - - - - - - -
18/06:30pm 18.5 ENE 12 15 1017.2 - 0.0 - - - - - - -
18/06:00pm 19.0 ENE 14 19 1017.1 - 0.0 - - - - - - -
18/05:30pm 19.6 NE 14 18 1017.1 - 0.0 - - - - - - -
18/05:00pm 20.4 ENE 15 19 1017.2 - 0.0 - - - - - - -
18/04:30pm 20.9 ENE 15 19 1017.4 - 0.0 - - - - - - -
18/04:00pm 21.4 ENE 14 17 1017.8 - 0.0 - - - - - - -
18/03:30pm 21.5 ENE 13 17 1018.2 - 0.0 - - - - - - -
18/03:00pm 22.1 ENE 13 17 1018.6 - 0.0 - - - - - - -
18/02:30pm 21.1 ENE 14 18 1018.9 - 0.0 - - - - - - -
18/02:00pm 21.3 ENE 14 19 1019.4 - 0.0 - - - - - - -
18/01:30pm 21.4 ENE 13 18 1019.8 - 0.0 - - - - - - -
18/01:00pm 21.4 ENE 13 16 1020.1 - 0.0 - - - - - - -
18/12:30pm 20.5 ENE 14 17 1020.4 - 0.0 - - - - - - -
18/12:00pm 21.2 ENE 10 15 1020.6 - 0.0 - - - - - - -
18/11:30am 20.2 ENE 11 14 1020.9 - 0.0 - - - - - - -
18/11:00am 20.7 ENE 14 18 1021.0 - 0.0 - - - - - - -
18/10:30am 20.8 ENE 14 18 1021.2 - 0.0 - - - - - - -
18/10:00am 20.7 ENE 14 17 1021.4 - 0.0 - - - - - - -
18/09:30am 19.7 ENE 13 17 1021.7 - 0.0 - - - - - - -
18/09:00am 19.0 E 13 19 1021.8 - 0.0 - - - - - - -
18/08:30am 18.3 E 12 16 1021.9 - 0.0 - - - - - - -
18/08:00am 17.5 E 8 12 1021.7 - 0.0 - - - - - - -
18/07:30am 16.0 E 9 12 1021.3 - 0.0 - - - - - - -
18/07:00am 14.5 E 7 10 1020.9 - 0.0 - - - - - - -
18/06:30am 13.4 E 7 10 1020.7 - 0.0 - - - - - - -
18/06:00am 13.5 E 5 7 1020.7 - 0.0 - - - - - - -
18/05:30am 14.2 ENE 8 11 1020.4 - 0.0 - - - - - - -
18/05:00am 13.8 ENE 5 8 1020.2 - 0.0 - - - - - - -
18/04:30am 13.3 E 4 7 1020.2 - 0.0 - - - - - - -
18/04:00am 13.4 E 7 9 1020.3 - 0.0 - - - - - - -
18/03:30am 14.1 E 7 9 1020.8 - 0.0 - - - - - - -
18/03:00am 14.4 E 8 13 1020.9 - 0.0 - - - - - - -
18/02:30am 14.5 E 10 14 1020.5 - 0.0 - - - - - - -
18/02:00am 14.6 ENE 10 13 1020.9 - 0.0 - - - - - - -
18/01:30am 14.2 E 9 13 1021.5 - 0.0 - - - - - - -
18/01:00am 14.3 E 5 7 1022.0 - 0.0 - - - - - - -
18/12:30am 14.2 ENE 7 11 1021.9 - 0.0 - - - - - - -
18/12:00am 14.0 E 8 11 1022.0 - 0.0 - - - - - - -
 
Date/Time
EDT
Temp
°C
Wind Pressure Rain since
9am
mm
Weather Cloud Vis
km
Sea
Height
m
Swell
Dir  Spd
kts
Gust
kts
hPa Trend Height
m
Period
s
Dir
17/11:30pm 13.0 ENE 5 7 1022.4 - 0.0 - - - - - - -
17/11:00pm 13.0 ENE 6 8 1022.6 - 0.0 - - - - - - -
17/10:30pm 13.3 ENE 6 8 1022.9 - 0.0 - - - - - - -
17/10:00pm 13.6 ENE 6 8 1023.0 - 0.0 - - - - - - -
17/09:30pm 13.6 ENE 6 7 1023.0 - 0.0 - - - - - - -
17/09:00pm 13.9 ENE 7 9 1022.9 - 0.0 - - - - - - -
17/08:30pm 14.0 ENE 5 6 1022.8 - 0.0 - - - - - - -
17/08:00pm 14.5 NE 5 7 1022.7 - 0.0 - - - - - - -
17/07:30pm 15.4 ENE 6 7 1022.4 - 0.0 - - - - - - -
17/07:00pm 17.0 ENE 8 10 1022.2 - 0.0 - - - - - - -
17/06:30pm 18.2 ENE 7 9 1022.1 - 0.0 - - - - - - -
17/06:00pm 18.6 ENE 9 11 1021.9 - 0.0 - - - - - - -
17/05:30pm 18.6 ENE 10 13 1021.9 - 0.0 - - - - - - -
17/05:00pm 19.1 ENE 10 14 1022.0 - 0.0 - - - - - - -
17/04:30pm 19.2 ENE 11 15 1022.2 - 0.0 - - - - - - -
17/04:00pm 18.6 NE 11 14 1022.3 - 0.0 - - - - - - -
17/03:30pm 19.1 NE 10 14 1022.5 - 0.0 - - - - - - -
17/03:00pm 19.0 NE 12 17 1022.9 - 0.0 - - - - - - -
17/02:30pm 19.1 ENE 12 15 1023.1 - 0.0 - - - - - - -
17/02:00pm 18.0 NE 13 16 1023.5 - 0.0 - - - - - - -
17/01:30pm 17.5 NE 14 18 1023.5 - 0.0 - - - - - - -
17/01:00pm 18.5 NE 15 19 1023.3 - 0.0 - - - - - - -
17/12:30pm 17.7 ENE 16 20 1023.4 - 0.0 - - - - - - -
17/12:00pm 17.9 ENE 16 20 1023.5 - 0.0 - - - - - - -
17/11:30am 18.1 ENE 15 20 1023.6 - 0.0 - - - - - - -
17/11:00am 18.2 ENE 14 19 1023.7 - 0.0 - - - - - - -
17/10:30am 18.3 ENE 14 18 1023.7 - 0.0 - - - - - - -
17/10:00am 18.5 ENE 12 16 1023.4 - 0.0 - - - - - - -
17/09:30am 17.1 ENE 13 18 1023.3 - 0.0 - - - - - - -
17/09:00am 16.2 E 9 11 1023.4 - 0.0 - - - - - - -
17/08:30am 14.6 E 11 13 1023.6 - 0.0 - - - - - - -
17/08:00am 13.1 E 9 12 1023.8 - 0.0 - - - - - - -
17/07:30am 12.0 E 8 10 1023.6 - 0.0 - - - - - - -

Other Formats:

Comma delimited format used in spreadsheet applications
http://www.bom.gov.au/fwo/IDT60701/IDT60701.94953.axf

JavaScript Object Notation format (JSON) in row-major order
http://www.bom.gov.au/fwo/IDT60701/IDT60701.94953.json